Time;durP1;ratioP1;P1;durP2;ratioP2;P2;SDS_P1;SDS_P2;PMS_P1;PMS_P2;Temp;Humidity;BMP_temperature;BMP_pressure;BME280_temperature;BME280_humidity;BME280_pressure;Samples;Min_cycle;Max_cycle;Signal;HPM_P1;HPM_P2
2021/01/16 00:03:01;;;;;;;0.80;0.80;;;;;;;-1.70;79.84;97848.03;299395;213;63009;-55
2021/01/16 00:08:07;;;;;;;0.80;0.80;;;;;;;-1.62;79.15;97841.78;299395;207;63005;-55
2021/01/16 00:13:15;;;;;;;0.80;0.80;;;;;;;-1.51;78.96;97838.59;299395;197;63009;-55
2021/01/16 00:18:19;;;;;;;0.80;0.80;;;;;;;-1.49;78.39;97841.88;299395;364;63004;-54
2021/01/16 00:23:23;;;;;;;0.80;0.80;;;;;;;-1.53;78.48;97839.78;299395;219;63009;-55
2021/01/16 00:28:26;;;;;;;;;;;;;;;-1.40;78.00;97835.41;299996;983;6009;-55
2021/01/16 00:33:33;;;;;;;1.27;1.27;;;;;;;-1.48;78.50;97837.37;299400;196;63004;-55
2021/01/16 00:38:41;;;;;;;0.80;0.80;;;;;;;-1.42;76.87;97831.28;299395;202;63009;-55
2021/01/16 00:43:42;;;;;;;0.80;0.80;;;;;;;-1.44;77.64;97833.31;299395;222;63008;-54
2021/01/16 00:48:44;;;;;;;0.80;0.80;;;;;;;-1.55;77.91;97836.50;299395;209;63008;-56
2021/01/16 00:53:45;;;;;;;1.00;1.00;;;;;;;-1.58;78.38;97832.38;299395;202;63004;-55
2021/01/16 00:58:46;;;;;;;0.90;0.90;;;;;;;-1.84;80.39;97833.00;299395;263;63009;-54
2021/01/16 01:03:47;;;;;;;0.90;0.90;;;;;;;-1.65;79.96;97826.19;299395;223;63004;-54
2021/01/16 01:08:48;;;;;;;1.83;1.77;;;;;;;-1.38;77.00;97832.53;299395;204;63009;-55
2021/01/16 01:13:52;;;;;;;0.80;0.80;;;;;;;-1.54;78.05;97841.63;299395;210;63005;-55
2021/01/16 01:18:53;;;;;;;0.80;0.80;;;;;;;-1.30;76.12;97836.87;299417;256;63008;-54
2021/01/16 01:23:54;;;;;;;0.80;0.80;;;;;;;-1.47;77.26;97839.84;299395;255;63004;-54
2021/01/16 01:28:55;;;;;;;4.60;2.58;;;;;;;-1.59;77.36;97841.38;299395;204;63009;-55
2021/01/16 01:33:57;;;;;;;2.70;1.73;;;;;;;-1.49;77.62;97841.88;299395;201;63004;-54
2021/01/16 01:38:58;;;;;;;0.80;0.80;;;;;;;-1.70;78.27;97840.06;299395;203;63009;-55
2021/01/16 01:43:59;;;;;;;0.90;0.90;;;;;;;-1.65;78.87;97842.16;299395;352;63011;-56
2021/01/16 01:49:01;;;;;;;0.80;0.80;;;;;;;-1.56;77.71;97841.00;299395;223;63009;-55
2021/01/16 01:54:04;;;;;;;0.80;0.80;;;;;;;-1.70;78.39;97847.22;299395;231;63010;-55
2021/01/16 01:59:08;;;;;;;0.80;0.80;;;;;;;-1.84;78.83;97846.31;299395;212;63009;-55
2021/01/16 02:04:12;;;;;;;0.80;0.80;;;;;;;-1.90;80.15;97843.56;299395;213;63005;-55
2021/01/16 02:09:13;;;;;;;0.95;0.95;;;;;;;-1.84;79.41;97840.97;299395;210;63009;-55
2021/01/16 02:14:14;;;;;;;0.80;0.80;;;;;;;-1.76;79.26;97837.37;299395;270;63005;-55
2021/01/16 02:19:54;;;;;;;0.80;0.80;;;;;;;-1.64;78.42;97837.66;299395;353;63027;-56
2021/01/16 02:25:12;;;;;;;0.80;0.80;;;;;;;-1.90;80.01;97832.94;299394;380;64004;-55
2021/01/16 02:30:14;;;;;;;0.70;0.70;;;;;;;-1.94;80.55;97826.34;299395;214;63009;-55
2021/01/16 02:35:18;;;;;;;0.80;0.80;;;;;;;-1.96;80.76;97825.72;299395;199;63005;-67
2021/01/16 02:40:37;;;;;;;0.80;0.80;;;;;;;-2.05;81.06;97828.50;299417;216;63008;-54
2021/01/16 02:45:44;;;;;;;0.80;0.80;;;;;;;-2.12;81.55;97835.63;299395;204;63004;-55
2021/01/16 02:50:53;;;;;;;0.80;0.80;;;;;;;-2.19;81.56;97826.75;299395;285;63009;-54
2021/01/16 02:55:54;;;;;;;0.80;0.80;;;;;;;-2.10;81.75;97820.28;299395;207;63005;-54
2021/01/16 03:00:58;;;;;;;0.80;0.80;;;;;;;-2.12;81.90;97824.97;299395;281;63009;-65
2021/01/16 03:05:59;;;;;;;0.88;0.88;;;;;;;-2.14;81.90;97827.00;299395;226;63005;-55
2021/01/16 03:11:02;;;;;;;0.80;0.80;;;;;;;-2.15;81.90;97830.66;299395;234;63009;-54
2021/01/16 03:16:06;;;;;;;0.80;0.80;;;;;;;-2.13;82.46;97823.31;299395;308;63004;-55
2021/01/16 03:21:09;;;;;;;0.80;0.80;;;;;;;-2.12;81.74;97826.81;299395;268;63009;-55
2021/01/16 03:26:10;;;;;;;0.80;0.80;;;;;;;-2.09;82.04;97826.44;299395;200;63005;-55
2021/01/16 03:31:10;;;;;;;0.80;0.80;;;;;;;-2.04;81.63;97824.00;299395;228;63009;-54
2021/01/16 03:36:11;;;;;;;0.80;0.80;;;;;;;-2.11;81.98;97826.63;299395;211;63005;-54
2021/01/16 03:41:14;;;;;;;0.80;0.80;;;;;;;-2.04;81.93;97826.66;299395;227;63009;-54
2021/01/16 03:46:15;;;;;;;0.80;0.80;;;;;;;-2.10;82.04;97822.94;299395;248;63014;-55
2021/01/16 03:51:19;;;;;;;0.80;0.80;;;;;;;-2.09;82.00;97819.28;299395;234;63020;-55
2021/01/16 03:56:20;;;;;;;0.80;0.80;;;;;;;-2.09;81.93;97819.28;299417;227;63005;-55
2021/01/16 04:01:23;;;;;;;0.80;0.80;;;;;;;-2.12;82.23;97824.97;299373;345;63009;-54
2021/01/16 04:06:24;;;;;;;0.80;0.80;;;;;;;-2.10;82.63;97822.94;299394;227;64009;-56
2021/01/16 04:11:25;;;;;;;0.80;0.80;;;;;;;-2.09;82.21;97819.28;299395;213;63006;-55
2021/01/16 04:16:27;;;;;;;0.80;0.80;;;;;;;-2.09;82.52;97837.91;299395;328;63004;-65
2021/01/16 04:21:28;;;;;;;0.80;0.80;;;;;;;-2.12;82.96;97830.28;299395;217;63009;-66
2021/01/16 04:26:30;;;;;;;0.80;0.80;;;;;;;-2.05;82.57;97833.00;299395;215;63005;-54
2021/01/16 04:31:31;;;;;;;0.80;0.80;;;;;;;-2.10;82.52;97830.09;299395;222;63009;-55
2021/01/16 04:36:35;;;;;;;0.80;0.80;;;;;;;-2.02;82.27;97828.13;299395;240;63010;-55
2021/01/16 04:41:37;;;;;;;0.80;0.80;;;;;;;-2.06;82.22;97834.00;299417;208;63009;-53
2021/01/16 04:46:39;;;;;;;0.80;0.80;;;;;;;-2.11;82.78;97826.63;299395;242;63004;-54
2021/01/16 04:51:45;;;;;;;0.80;0.80;;;;;;;-2.16;82.97;97823.72;299395;218;63009;-55
2021/01/16 04:56:46;;;;;;;0.80;0.80;;;;;;;-2.12;82.45;97813.53;299395;208;63005;-54
2021/01/16 05:01:48;;;;;;;0.80;0.80;;;;;;;-2.19;82.60;97805.47;299395;206;63008;-65
2021/01/16 05:06:49;;;;;;;0.80;0.80;;;;;;;-2.15;82.94;97813.91;299395;209;63004;-64
2021/01/16 05:12:23;;;;;;;0.73;0.73;;;;;;;-2.07;81.92;97819.06;299395;333;63009;-54
2021/01/16 05:17:27;;;;;;;0.80;0.80;;;;;;;-2.03;82.14;97812.34;299395;273;63011;-66
2021/01/16 05:22:28;;;;;;;0.80;0.80;;;;;;;-2.11;82.21;97810.66;299417;259;63009;-54
2021/01/16 05:27:34;;;;;;;0.80;0.80;;;;;;;-2.15;82.92;97812.06;299395;209;63005;-66
2021/01/16 05:32:36;;;;;;;0.80;0.80;;;;;;;-2.17;82.64;97811.41;299395;331;63009;-54
2021/01/16 05:37:37;;;;;;;0.80;0.80;;;;;;;-2.14;83.08;97815.53;299395;228;63021;-54
2021/01/16 05:42:39;;;;;;;0.80;0.80;;;;;;;-2.20;82.55;97816.28;299395;225;63020;-54
2021/01/16 05:47:42;;;;;;;0.80;0.80;;;;;;;-2.15;82.88;97819.22;299395;224;63010;-64
2021/01/16 05:52:44;;;;;;;0.70;0.70;;;;;;;-2.19;82.76;97824.09;299395;220;63009;-54
2021/01/16 05:57:47;;;;;;;0.70;0.70;;;;;;;-2.25;83.16;97816.84;299395;341;63008;-54
2021/01/16 06:02:51;;;;;;;0.80;0.80;;;;;;;-2.17;82.55;97815.91;299377;327;125018;-64
2021/01/16 06:07:53;;;;;;;0.80;0.80;;;;;;;-2.12;82.29;97809.03;299418;202;63000;-53
2021/01/16 06:13:01;;;;;;;2.85;2.75;;;;;;;-2.08;82.43;97815.59;299374;218;63005;-54
2021/01/16 06:18:02;;;;;;;0.80;0.80;;;;;;;-2.10;82.38;97807.00;299396;197;63001;-54
2021/01/16 06:23:14;;;;;;;0.80;0.80;;;;;;;-1.88;80.22;97807.78;299396;196;63004;-54
2021/01/16 06:28:18;;;;;;;0.90;0.90;;;;;;;-1.94;80.84;97807.72;299396;246;63000;-54
2021/01/16 06:33:27;;;;;;;0.80;0.80;;;;;;;-2.02;81.59;97814.81;299418;246;63005;-55
2021/01/16 06:38:36;;;;;;;0.80;0.80;;;;;;;-2.18;82.75;97799.16;299396;202;63000;-55
2021/01/16 06:43:40;;;;;;;0.80;0.80;;;;;;;-2.24;82.96;97801.72;299396;238;63004;-54
2021/01/16 06:48:43;;;;;;;0.80;0.80;;;;;;;-2.26;82.98;97798.44;299480;257;125000;-54
2021/01/16 06:53:45;;;;;;;0.80;0.80;;;;;;;-2.29;83.27;97799.63;299419;202;63004;-55
2021/01/16 06:58:49;;;;;;;0.80;0.80;;;;;;;-2.31;83.66;97796.34;299397;196;63000;-55
2021/01/16 07:03:50;;;;;;;0.83;0.83;;;;;;;-2.28;83.84;97792.50;299418;199;63005;-54
2021/01/16 07:08:52;;;;;;;0.80;0.80;;;;;;;-2.22;82.81;97783.75;299396;220;63000;-54
2021/01/16 07:13:53;;;;;;;0.80;0.80;;;;;;;-2.25;82.69;97787.62;299396;206;63004;-54
2021/01/16 07:18:55;;;;;;;0.80;0.80;;;;;;;-2.23;82.78;97798.06;299396;206;63000;-53
2021/01/16 07:23:57;;;;;;;0.80;0.80;;;;;;;-2.29;82.13;97796.97;299396;230;63004;-54
2021/01/16 07:29:01;;;;;;;0.80;0.80;;;;;;;-2.20;82.13;97806.47;299396;208;63000;-55
2021/01/16 07:34:03;;;;;;;;;;;;;;;-2.26;81.97;97801.91;299996;982;6005;-54
2021/01/16 07:39:07;;;;;;;0.80;0.80;;;;;;;-2.19;81.67;97807.31;299401;228;63004;-55
2021/01/16 07:44:11;;;;;;;0.80;0.80;;;;;;;-2.25;81.60;97803.56;299379;300;125000;-55
2021/01/16 07:49:19;;;;;;;0.80;0.80;;;;;;;-2.21;82.16;97810.16;299419;264;63005;-54
2021/01/16 07:54:23;;;;;;;0.90;0.90;;;;;;;-2.18;82.84;97809.78;299395;196;63001;-56
2021/01/16 07:59:33;;;;;;;0.80;0.80;;;;;;;-2.15;82.49;97814.72;299417;220;63004;-54
2021/01/16 08:05:09;;;;;;;0.80;0.80;;;;;;;-2.09;81.78;97819.28;299395;247;63000;-54
2021/01/16 08:10:18;;;;;;;0.80;0.80;;;;;;;-2.08;81.45;97815.59;299395;199;63005;-54
2021/01/16 08:15:28;;;;;;;0.80;0.80;;;;;;;-2.10;81.08;97807.00;299395;201;63000;-54
2021/01/16 08:20:38;;;;;;;0.70;0.70;;;;;;;-2.13;81.45;97802.06;299395;204;63004;-54
2021/01/16 08:25:39;;;;;;;0.80;0.80;;;;;;;-2.09;81.44;97794.53;299395;216;63000;-54
2021/01/16 08:30:40;;;;;;;0.80;0.80;;;;;;;-2.06;81.31;97789.63;299395;220;63019;-54
2021/01/16 08:35:48;;;;;;;0.80;0.80;;;;;;;-2.08;80.88;97794.31;299395;274;63000;-54
2021/01/16 08:41:04;;;;;;;0.80;0.80;;;;;;;-2.08;80.62;97778.34;299395;235;63005;-55
2021/01/16 08:46:35;;;;;;;0.80;0.80;;;;;;;-2.06;81.00;97786.97;299395;204;63000;-53
2021/01/16 08:51:44;;;;;;;0.80;0.80;;;;;;;-2.07;81.78;97779.19;299395;232;63000;-65
2021/01/16 08:57:19;;;;;;;0.80;0.80;;;;;;;-2.02;81.45;97788.22;299395;268;63005;-54
2021/01/16 09:02:20;;;;;;;0.80;0.80;;;;;;;-1.99;81.79;97789.69;299479;268;125013;-55
2021/01/16 09:07:23;;;;;;;0.80;0.80;;;;;;;-1.86;80.43;97791.66;299395;198;63004;-54
2021/01/16 09:12:35;;;;;;;0.80;0.80;;;;;;;-1.77;80.15;97787.84;299395;243;63000;-54
2021/01/16 09:17:36;;;;;;;0.80;0.80;;;;;;;-1.80;79.17;97790.87;299395;218;63005;-56
2021/01/16 09:22:37;;;;;;;0.80;0.80;;;;;;;-1.80;79.76;97796.19;299395;222;63000;-54
2021/01/16 09:27:46;;;;;;;0.80;0.80;;;;;;;-1.76;78.69;97802.78;299395;199;63004;-54
2021/01/16 09:32:48;;;;;;;0.80;0.80;;;;;;;-1.73;78.88;97807.69;299395;231;63000;-64
2021/01/16 09:37:49;;;;;;;0.90;0.90;;;;;;;-1.71;77.95;97814.47;299395;217;63022;-55
2021/01/16 09:42:51;;;;;;;1.12;1.12;;;;;;;-1.61;78.37;97811.47;299395;205;63000;-54
2021/01/16 09:47:53;;;;;;;0.80;0.80;;;;;;;-1.51;77.55;97808.50;299395;202;63005;-54
2021/01/16 09:52:59;;;;;;;0.80;0.80;;;;;;;-1.38;76.61;97812.03;299395;210;63000;-64
2021/01/16 09:58:02;;;;;;;0.80;0.80;;;;;;;-1.40;77.04;97807.97;299395;210;63004;-55
2021/01/16 10:03:06;;;;;;;0.80;0.80;;;;;;;-1.35;76.45;97794.88;299395;253;63000;-54
2021/01/16 10:08:09;;;;;;;0.80;0.80;;;;;;;-1.26;75.70;97784.88;299417;292;63004;-55
2021/01/16 10:13:12;;;;;;;0.80;0.80;;;;;;;-1.27;74.90;97783.25;299395;228;63000;-55
2021/01/16 10:18:18;;;;;;;0.80;0.80;;;;;;;-1.11;74.44;97772.28;299377;202;125018;-55
2021/01/16 10:23:30;;;;;;;0.80;0.80;;;;;;;-1.17;75.02;97749.09;299395;228;63001;-55
2021/01/16 10:28:39;;;;;;;0.80;0.80;;;;;;;-1.06;73.26;97745.87;299395;326;63004;-54
2021/01/16 10:33:48;;;;;;;0.80;0.80;;;;;;;-0.86;71.31;97729.97;299395;328;63000;-65
2021/01/16 10:38:59;;;;;;;0.80;0.80;;;;;;;-0.89;70.81;97719.69;299395;230;63005;-63
2021/01/16 10:44:03;;;;;;;0.80;0.80;;;;;;;-0.89;69.55;97709.88;299395;225;63000;-63
2021/01/16 10:49:49;;;;;;;0.80;0.80;;;;;;;-0.68;68.22;97701.72;299417;229;63005;-63
2021/01/16 10:55:08;;;;;;;0.80;0.80;;;;;;;-0.69;68.91;97689.41;299439;199;63000;-63
2021/01/16 11:00:13;;;;;;;0.80;0.80;;;;;;;-0.61;68.35;97684.91;299395;251;63004;-64
2021/01/16 11:05:20;;;;;;;0.70;0.70;;;;;;;-0.71;67.27;97675.50;299395;202;63000;-64
2021/01/16 11:10:30;;;;;;;0.70;0.70;;;;;;;-0.52;65.63;97673.03;299395;203;63005;-64
2021/01/16 11:15:37;;;;;;;0.80;0.80;;;;;;;-0.55;66.47;97668.13;299395;317;63008;-63
2021/01/16 11:20:50;;;;;;;0.80;0.80;;;;;;;-0.68;65.97;97661.72;299395;303;63004;-64
2021/01/16 11:25:52;;;;;;;0.90;0.90;;;;;;;-0.42;62.60;97658.28;299395;227;63000;-67
2021/01/16 11:31:05;;;;;;;0.80;0.80;;;;;;;-0.52;63.71;97657.06;299395;202;63005;-66
2021/01/16 11:36:14;;;;;;;1.60;1.50;;;;;;;-0.36;62.97;97651.34;299395;218;63000;-55
2021/01/16 11:41:55;;;;;;;0.85;0.85;;;;;;;-0.47;62.04;97628.75;299395;330;63004;-55
2021/01/16 11:47:01;;;;;;;0.80;0.80;;;;;;;-0.49;62.80;97629.97;299394;202;64000;-55
2021/01/16 11:52:06;;;;;;;0.80;0.80;;;;;;;-0.40;61.81;97628.75;299395;212;63004;-63
2021/01/16 11:57:12;;;;;;;0.80;0.80;;;;;;;-0.36;59.89;97611.34;299395;218;63000;-62
2021/01/16 12:02:19;;;;;;;1.10;1.10;;;;;;;-0.32;59.07;97598.38;299395;256;63005;-55
2021/01/16 12:07:20;;;;;;;0.80;0.80;;;;;;;-0.51;61.30;97594.72;299395;214;63001;-62
2021/01/16 12:12:31;;;;;;;0.82;0.82;;;;;;;-0.56;58.86;97591.84;299395;212;63004;-55
2021/01/16 12:17:34;;;;;;;0.80;0.80;;;;;;;-0.64;59.57;97589.38;299395;204;63000;-55
2021/01/16 12:22:38;;;;;;;0.80;0.80;;;;;;;-0.36;58.93;97574.81;299395;214;63005;-63
2021/01/16 12:27:51;;;;;;;0.80;0.80;;;;;;;-0.58;60.54;97580.56;299417;328;63000;-55
2021/01/16 12:32:52;;;;;;;0.80;0.80;;;;;;;-0.24;58.60;97569.66;299395;225;63005;-54
2021/01/16 12:37:53;;;;;;;0.77;0.77;;;;;;;-0.42;59.95;97572.97;299395;319;63001;-55
2021/01/16 12:42:56;;;;;;;0.80;0.80;;;;;;;-0.42;64.29;97577.50;299395;202;63004;-64
2021/01/16 12:48:01;;;;;;;0.80;0.80;;;;;;;-0.43;66.33;97575.84;299395;219;63011;-56
2021/01/16 12:53:03;;;;;;;0.80;0.80;;;;;;;-0.56;67.07;97570.50;299417;197;63005;-62
2021/01/16 12:58:04;;;;;;;0.80;0.80;;;;;;;-0.88;68.20;97562.31;299395;196;63000;-55
2021/01/16 13:03:06;;;;;;;0.80;0.80;;;;;;;-0.55;66.69;97546.31;299395;215;63004;-56
2021/01/16 13:08:13;;;;;;;1.48;1.45;;;;;;;-0.42;65.94;97535.66;299395;232;63000;-56
2021/01/16 13:13:16;;;;;;;0.80;0.80;;;;;;;-0.81;67.75;97536.50;299395;314;63004;-66
2021/01/16 13:18:20;;;;;;;0.82;0.82;;;;;;;-0.75;67.42;97535.69;299395;267;63000;-54
2021/01/16 13:23:44;;;;;;;0.80;0.80;;;;;;;-0.64;67.66;97528.06;299417;284;63005;-55
2021/01/16 13:28:48;;;;;;;0.80;0.80;;;;;;;-0.44;67.81;97526.22;299395;217;63000;-64
2021/01/16 13:33:51;;;;;;;;;;;;;;;-0.54;68.66;97515.16;299996;983;6004;-56
2021/01/16 13:38:54;;;;;;;0.80;0.80;;;;;;;-0.85;70.80;97519.28;299400;273;63005;-55
2021/01/16 13:43:55;;;;;;;0.80;0.80;;;;;;;-1.06;71.36;97516.81;299395;368;63000;-63
2021/01/16 13:48:56;;;;;;;0.80;0.80;;;;;;;-0.99;71.75;97514.97;299395;196;63004;-56
2021/01/16 13:54:02;;;;;;;0.80;0.80;;;;;;;-0.87;71.48;97516.00;299395;283;63000;-56
2021/01/16 13:59:04;;;;;;;0.80;0.80;;;;;;;-0.91;72.28;97513.94;299395;206;63004;-65
2021/01/16 14:04:08;;;;;;;0.80;0.80;;;;;;;-1.05;72.96;97513.12;299395;327;63000;-55
2021/01/16 14:09:10;;;;;;;0.80;0.80;;;;;;;-1.22;73.59;97517.22;299417;338;63005;-55
2021/01/16 14:14:24;;;;;;;0.80;0.80;;;;;;;-1.26;73.81;97506.13;299395;340;63001;-54
2021/01/16 14:19:27;;;;;;;0.80;0.80;;;;;;;-0.80;71.68;97506.16;299417;328;63004;-67
2021/01/16 14:24:30;;;;;;;0.80;0.80;;;;;;;-1.04;72.78;97504.12;299395;253;63000;-53
2021/01/16 14:29:32;;;;;;;1.20;1.20;;;;;;;-1.18;73.49;97500.63;299395;216;63009;-56
2021/01/16 14:34:43;;;;;;;0.80;0.80;;;;;;;-0.98;72.75;97497.97;299395;270;63004;-53
2021/01/16 14:39:44;;;;;;;1.10;1.10;;;;;;;-1.03;73.46;97500.41;299395;208;63009;-63
2021/01/16 14:44:47;;;;;;;0.90;0.90;;;;;;;-1.23;74.54;97491.59;299395;224;63005;-65
2021/01/16 14:49:47;;;;;;;2.55;1.55;;;;;;;-0.64;71.02;97486.25;299394;215;64013;-70
2021/01/16 14:54:58;;;;;;;4.28;3.90;;;;;;;-1.09;73.11;97479.94;299395;327;63005;-55
2021/01/16 15:00:00;;;;;;;0.80;0.80;;;;;;;-1.37;74.18;97477.44;299395;326;63009;-66
2021/01/16 15:05:06;;;;;;;1.73;1.65;;;;;;;-1.48;74.79;97470.91;299395;243;63004;-54
2021/01/16 15:10:09;;;;;;;0.80;0.80;;;;;;;-1.20;73.30;97461.91;299395;230;63009;-54
2021/01/16 15:15:16;;;;;;;0.80;0.80;;;;;;;-1.18;73.35;97460.69;299395;230;63005;-55
2021/01/16 15:20:17;;;;;;;0.80;0.80;;;;;;;-1.58;74.43;97465.13;299395;210;63008;-55
2021/01/16 15:25:21;;;;;;;0.80;0.80;;;;;;;-1.60;75.25;97461.88;299395;214;63004;-57
2021/01/16 15:30:26;;;;;;;0.80;0.80;;;;;;;-1.27;73.04;97458.41;299417;199;63009;-55
2021/01/16 15:35:42;;;;;;;1.20;1.20;;;;;;;-1.28;72.28;97456.78;299395;236;63004;-56
2021/01/16 15:40:44;;;;;;;0.80;0.80;;;;;;;-1.53;73.45;97459.22;299417;276;63009;-55
2021/01/16 15:45:46;;;;;;;0.80;0.80;;;;;;;-1.69;73.86;97455.91;299395;266;63005;-55
2021/01/16 15:50:47;;;;;;;0.80;0.80;;;;;;;-2.00;75.03;97454.78;299395;196;63009;-54
2021/01/16 15:55:56;;;;;;;0.80;0.80;;;;;;;-1.91;74.76;97453.59;299395;325;63004;-55
2021/01/16 16:01:11;;;;;;;0.80;0.80;;;;;;;-1.90;74.58;97452.59;299395;218;63009;-55
2021/01/16 16:06:12;;;;;;;0.80;0.80;;;;;;;-2.12;75.69;97460.72;299417;276;63005;-55
2021/01/16 16:11:17;;;;;;;0.80;0.80;;;;;;;-2.14;75.28;97449.44;299395;231;63021;-55
2021/01/16 16:16:18;;;;;;;0.80;0.80;;;;;;;-2.26;75.80;97464.31;299417;277;63012;-54
2021/01/16 16:21:19;;;;;;;0.80;0.80;;;;;;;-2.32;75.36;97454.47;299395;340;63009;-54
2021/01/16 16:26:21;;;;;;;0.80;0.80;;;;;;;-2.36;76.63;97454.03;299395;258;63004;-56
2021/01/16 16:31:22;;;;;;;0.80;0.80;;;;;;;-2.37;75.95;97444.44;299395;290;63009;-55
2021/01/16 16:36:24;;;;;;;0.80;0.80;;;;;;;-2.41;76.03;97435.19;299395;212;63010;-55
2021/01/16 16:41:28;;;;;;;0.80;0.80;;;;;;;-2.50;75.97;97422.31;299395;211;63009;-54
2021/01/16 16:46:37;;;;;;;0.90;0.90;;;;;;;-2.48;75.72;97423.75;299417;254;63005;-54
2021/01/16 16:51:38;;;;;;;0.80;0.80;;;;;;;-2.58;76.40;97420.62;299395;233;63009;-55
2021/01/16 16:56:40;;;;;;;0.80;0.80;;;;;;;-2.54;76.85;97416.56;299395;253;63004;-54
2021/01/16 17:01:43;;;;;;;0.80;0.80;;;;;;;-2.57;77.13;97410.81;299395;229;63009;-70
2021/01/16 17:06:46;;;;;;;0.90;0.90;;;;;;;-2.59;77.33;97407.53;299395;335;63005;-54
2021/01/16 17:11:48;;;;;;;0.90;0.90;;;;;;;-2.58;77.08;97393.25;299395;244;63008;-56
2021/01/16 17:16:50;;;;;;;0.80;0.80;;;;;;;-2.43;76.30;97391.28;299395;214;63004;-54
2021/01/16 17:21:51;;;;;;;0.80;0.80;;;;;;;-2.40;76.17;97396.16;299395;275;63009;-54
2021/01/16 17:26:53;;;;;;;0.90;0.90;;;;;;;-2.42;76.05;97390.22;299394;196;64004;-69
2021/01/16 17:31:54;;;;;;;0.85;0.85;;;;;;;-2.48;76.41;97383.91;299395;370;63009;-54
2021/01/16 17:37:04;;;;;;;0.80;0.80;;;;;;;-2.51;75.76;97375.50;299395;212;63009;-68
2021/01/16 17:42:09;;;;;;;0.80;0.80;;;;;;;-2.68;76.19;97382.97;299395;196;63008;-71
2021/01/16 17:47:12;;;;;;;0.80;0.80;;;;;;;-2.66;76.14;97372.97;299395;222;63004;-66
2021/01/16 17:52:14;;;;;;;0.80;0.80;;;;;;;-2.71;76.18;97357.63;299395;198;63009;-71
2021/01/16 17:57:15;;;;;;;0.80;0.80;;;;;;;-2.73;76.37;97356.19;299395;358;63004;-64
2021/01/16 18:02:21;;;;;;;0.80;0.80;;;;;;;-2.77;76.71;97347.78;299395;269;63009;-65
2021/01/16 18:07:22;;;;;;;0.80;0.80;;;;;;;-2.75;76.90;97345.75;299395;222;63005;-64
2021/01/16 18:12:23;;;;;;;0.80;0.80;;;;;;;-2.73;76.30;97333.09;299395;266;63013;-65
2021/01/16 18:17:26;;;;;;;0.80;0.80;;;;;;;-2.83;76.55;97322.03;299395;198;63004;-65
2021/01/16 18:22:28;;;;;;;0.80;0.80;;;;;;;-2.84;75.95;97323.06;299395;205;63009;-67
2021/01/16 18:27:29;;;;;;;0.80;0.80;;;;;;;-2.84;76.05;97319.56;299395;231;63005;-54
2021/01/16 18:32:33;;;;;;;0.80;0.80;;;;;;;-2.87;75.83;97310.16;299395;370;63009;-67
2021/01/16 18:37:34;;;;;;;0.90;0.90;;;;;;;-2.84;75.07;97308.97;299417;261;63005;-54
2021/01/16 18:42:35;;;;;;;0.80;0.80;;;;;;;-2.87;75.24;97307.50;299396;207;63009;-65
2021/01/16 18:47:42;;;;;;;0.80;0.80;;;;;;;-2.89;75.06;97301.56;299396;210;63004;-66
2021/01/16 18:52:44;;;;;;;0.90;0.90;;;;;;;-2.86;74.83;97297.72;299396;391;63009;-67
2021/01/16 18:57:44;;;;;;;0.90;0.90;;;;;;;-2.87;75.32;97288.94;299396;211;63005;-64
2021/01/16 19:02:45;;;;;;;0.80;0.80;;;;;;;-2.85;74.60;97286.88;299396;228;63009;-64
2021/01/16 19:07:46;;;;;;;0.90;0.90;;;;;;;-2.86;75.42;97284.44;299396;202;63005;-54
2021/01/16 19:12:48;;;;;;;0.80;0.80;;;;;;;-2.93;74.61;97270.31;299396;203;63009;-63
2021/01/16 19:17:53;;;;;;;0.82;0.82;;;;;;;-2.93;74.92;97263.16;299396;223;63004;-65
2021/01/16 19:22:56;;;;;;;0.80;0.80;;;;;;;-2.84;73.74;97256.66;299396;240;63009;-54
2021/01/16 19:27:58;;;;;;;0.82;0.82;;;;;;;-2.88;73.58;97250.13;299397;206;63005;-54
2021/01/16 19:33:03;;;;;;;0.80;0.80;;;;;;;-2.88;73.38;97250.13;299397;202;63009;-65
2021/01/16 19:38:04;;;;;;;0.90;0.90;;;;;;;-2.88;72.67;97238.66;299396;264;63018;-65
2021/01/16 19:43:06;;;;;;;0.85;0.85;;;;;;;-2.93;73.03;97226.00;299396;275;63009;-54
2021/01/16 19:48:08;;;;;;;0.90;0.90;;;;;;;-2.86;72.61;97218.87;299396;267;63004;-64
2021/01/16 19:53:12;;;;;;;0.80;0.80;;;;;;;-2.86;73.03;97205.59;299396;228;63009;-54
2021/01/16 19:58:13;;;;;;;0.80;0.80;;;;;;;-2.83;73.58;97205.19;299418;196;63005;-54
2021/01/16 20:03:14;;;;;;;0.80;0.80;;;;;;;-2.72;71.91;97193.97;299396;196;63009;-66
2021/01/16 20:08:15;;;;;;;0.80;0.80;;;;;;;-2.87;72.62;97189.84;299396;215;63005;-63
2021/01/16 20:13:19;;;;;;;0.80;0.80;;;;;;;-2.89;72.23;97171.47;299396;210;63020;-53
2021/01/16 20:18:20;;;;;;;0.80;0.80;;;;;;;-2.82;72.37;97174.16;299419;203;63011;-66
2021/01/16 20:23:24;;;;;;;0.90;0.90;;;;;;;-2.27;68.99;97167.63;299397;220;63009;-64
2021/01/16 20:28:25;;;;;;;1.37;1.35;;;;;;;-2.60;70.40;97167.63;299417;240;63005;-54
2021/01/16 20:33:28;;;;;;;0.90;0.90;;;;;;;-2.69;71.03;97168.84;299395;209;63008;-55
2021/01/16 20:38:29;;;;;;;0.90;0.90;;;;;;;-2.86;71.67;97159.63;299395;214;63004;-55
2021/01/16 20:43:29;;;;;;;12.55;12.07;;;;;;;-2.79;71.39;97163.94;299385;200;65009;-54
2021/01/16 20:48:30;;;;;;;0.85;0.85;;;;;;;-2.91;71.34;97160.22;299395;213;63004;-63
2021/01/16 20:53:33;;;;;;;0.80;0.80;;;;;;;-2.89;71.82;97162.69;299395;227;63009;-62
2021/01/16 20:58:35;;;;;;;0.80;0.80;;;;;;;-3.10;72.53;97156.50;299395;235;63005;-55
2021/01/16 21:03:37;;;;;;;0.90;0.90;;;;;;;-2.98;71.41;97142.66;299395;394;63008;-54
2021/01/16 21:08:41;;;;;;;0.80;0.80;;;;;;;-2.97;71.50;97131.81;299395;390;63004;-66
2021/01/16 21:13:43;;;;;;;0.90;0.90;;;;;;;-2.89;71.05;97125.50;299417;370;63009;-55
2021/01/16 21:18:45;;;;;;;0.80;0.80;;;;;;;-3.10;71.48;97118.50;299395;221;63004;-55
2021/01/16 21:23:46;;;;;;;0.90;0.90;;;;;;;-3.11;71.13;97106.25;299395;212;63009;-54
2021/01/16 21:28:47;;;;;;;1.00;1.00;;;;;;;-3.08;71.22;97116.47;299395;224;63005;-54
2021/01/16 21:33:48;;;;;;;0.93;0.93;;;;;;;-3.07;71.54;97108.31;299395;215;63008;-54
2021/01/16 21:38:56;;;;;;;0.90;0.90;;;;;;;-2.91;70.07;97091.19;299395;202;63004;-65
2021/01/16 21:43:57;;;;;;;0.90;0.90;;;;;;;-3.07;70.17;97092.38;299395;202;63009;-54
2021/01/16 21:48:58;;;;;;;0.90;0.90;;;;;;;-3.12;70.42;97083.41;299395;206;63005;-66
2021/01/16 21:53:59;;;;;;;0.80;0.80;;;;;;;-3.10;70.98;97076.03;299395;204;63009;-65
2021/01/16 21:59:01;;;;;;;0.80;0.80;;;;;;;-3.11;70.60;97079.72;299395;196;63005;-54
2021/01/16 22:04:04;;;;;;;0.80;0.80;;;;;;;-3.00;70.51;97067.69;299395;203;63009;-65
2021/01/16 22:09:10;;;;;;;0.80;0.80;;;;;;;-3.05;70.23;97070.94;299395;213;63004;-55
2021/01/16 22:14:14;;;;;;;0.80;0.80;;;;;;;-3.17;70.58;97054.00;299395;224;63009;-55
2021/01/16 22:19:17;;;;;;;0.90;0.90;;;;;;;-3.08;70.00;97052.78;299395;200;63005;-65
2021/01/16 22:24:20;;;;;;;1.00;1.00;;;;;;;-3.21;70.93;97068.69;299395;232;63009;-65
2021/01/16 22:29:22;;;;;;;0.80;0.80;;;;;;;-3.05;70.72;97063.81;299395;231;63004;-55
2021/01/16 22:34:24;;;;;;;0.90;0.90;;;;;;;-2.94;70.34;97056.25;299395;379;63009;-54
2021/01/16 22:39:26;;;;;;;0.90;0.90;;;;;;;-2.90;70.48;97050.34;299395;196;63004;-55
2021/01/16 22:44:27;;;;;;;0.80;0.80;;;;;;;-2.74;71.02;97049.91;299395;208;63009;-55
2021/01/16 22:49:28;;;;;;;0.90;0.90;;;;;;;-3.00;72.20;97043.81;299395;379;63010;-54
2021/01/16 22:54:29;;;;;;;0.90;0.90;;;;;;;-2.97;74.58;97041.56;299395;393;63008;-54
2021/01/16 22:59:30;;;;;;;0.85;0.85;;;;;;;-3.32;76.66;97025.00;299395;222;63004;-63
2021/01/16 23:04:31;;;;;;;0.80;0.80;;;;;;;-3.20;76.93;97022.56;299395;394;63009;-54
2021/01/16 23:09:32;;;;;;;0.90;0.90;;;;;;;-3.40;77.44;97003.94;299395;274;63004;-54
2021/01/16 23:14:33;;;;;;;0.90;0.90;;;;;;;-3.49;78.72;96986.62;299395;202;63009;-63
2021/01/16 23:19:35;;;;;;;0.90;0.90;;;;;;;-3.66;80.48;96980.03;299395;207;63005;-56
2021/01/16 23:24:36;;;;;;;0.90;0.90;;;;;;;-3.67;80.48;96965.97;299395;209;63008;-55
2021/01/16 23:29:37;;;;;;;0.90;0.90;;;;;;;-3.61;80.99;96961.69;299395;258;63005;-55
2021/01/16 23:34:41;;;;;;;0.90;0.90;;;;;;;-3.65;80.74;96969.22;299395;207;63009;-56
2021/01/16 23:39:42;;;;;;;0.90;0.90;;;;;;;-3.60;81.24;96968.63;299417;267;63010;-57
2021/01/16 23:44:43;;;;;;;0.90;0.90;;;;;;;-3.61;81.32;96957.22;299395;224;63009;-55
2021/01/16 23:49:44;;;;;;;0.90;0.90;;;;;;;-3.58;81.62;96951.50;299394;198;64005;-56
2021/01/16 23:54:46;;;;;;;0.90;0.90;;;;;;;-3.69;81.93;96945.97;299395;216;63008;-55